sensor_id;sensor_type;location;lat;lon;timestamp;P1;durP1;ratioP1;P2;durP2;ratioP2
10596;SDS011;5346;48.766;8.674;2023-09-18T00:02:15;5.25;;;2.22;;
10596;SDS011;5346;48.766;8.674;2023-09-18T00:04:43;6.47;;;2.33;;
10596;SDS011;5346;48.766;8.674;2023-09-18T00:07:20;4.43;;;2.25;;
10596;SDS011;5346;48.766;8.674;2023-09-18T00:09:54;4.20;;;2.08;;
10596;SDS011;5346;48.766;8.674;2023-09-18T00:12:29;4.63;;;2.20;;
10596;SDS011;5346;48.766;8.674;2023-09-18T00:15:04;5.57;;;2.45;;
10596;SDS011;5346;48.766;8.674;2023-09-18T00:17:32;2.38;;;2.17;;
10596;SDS011;5346;48.766;8.674;2023-09-18T00:20:07;5.75;;;2.25;;
10596;SDS011;5346;48.766;8.674;2023-09-18T00:22:35;4.45;;;2.13;;
10596;SDS011;5346;48.766;8.674;2023-09-18T00:25:10;6.43;;;2.20;;
10596;SDS011;5346;48.766;8.674;2023-09-18T00:27:44;3.67;;;2.20;;
10596;SDS011;5346;48.766;8.674;2023-09-18T00:30:18;5.53;;;2.40;;
10596;SDS011;5346;48.766;8.674;2023-09-18T00:32:53;5.28;;;1.95;;
10596;SDS011;5346;48.766;8.674;2023-09-18T00:35:21;8.05;;;2.60;;
10596;SDS011;5346;48.766;8.674;2023-09-18T00:37:57;3.80;;;2.17;;
10596;SDS011;5346;48.766;8.674;2023-09-18T00:40:33;4.45;;;2.28;;
10596;SDS011;5346;48.766;8.674;2023-09-18T00:43:08;4.25;;;2.05;;
10596;SDS011;5346;48.766;8.674;2023-09-18T00:45:44;4.85;;;2.13;;
10596;SDS011;5346;48.766;8.674;2023-09-18T00:48:20;7.22;;;2.40;;
10596;SDS011;5346;48.766;8.674;2023-09-18T00:50:54;3.55;;;2.20;;
10596;SDS011;5346;48.766;8.674;2023-09-18T00:53:30;9.65;;;2.33;;
10596;SDS011;5346;48.766;8.674;2023-09-18T00:56:04;6.15;;;2.00;;
10596;SDS011;5346;48.766;8.674;2023-09-18T00:58:38;3.55;;;2.00;;
10596;SDS011;5346;48.766;8.674;2023-09-18T01:01:14;6.70;;;2.08;;
10596;SDS011;5346;48.766;8.674;2023-09-18T01:03:49;2.67;;;2.20;;
10596;SDS011;5346;48.766;8.674;2023-09-18T01:06:26;12.00;;;2.83;;
10596;SDS011;5346;48.766;8.674;2023-09-18T01:08:57;4.43;;;2.10;;
10596;SDS011;5346;48.766;8.674;2023-09-18T01:11:43;4.50;;;1.98;;
10596;SDS011;5346;48.766;8.674;2023-09-18T01:14:29;4.03;;;2.13;;
10596;SDS011;5346;48.766;8.674;2023-09-18T01:17:14;5.95;;;2.10;;
10596;SDS011;5346;48.766;8.674;2023-09-18T01:19:48;7.53;;;2.15;;
10596;SDS011;5346;48.766;8.674;2023-09-18T01:22:23;7.00;;;1.92;;
10596;SDS011;5346;48.766;8.674;2023-09-18T01:24:50;7.90;;;2.55;;
10596;SDS011;5346;48.766;8.674;2023-09-18T01:27:25;6.22;;;2.00;;
10596;SDS011;5346;48.766;8.674;2023-09-18T01:29:53;6.65;;;1.95;;
10596;SDS011;5346;48.766;8.674;2023-09-18T01:32:29;4.45;;;2.30;;
10596;SDS011;5346;48.766;8.674;2023-09-18T01:35:13;6.75;;;2.10;;
10596;SDS011;5346;48.766;8.674;2023-09-18T01:37:49;4.30;;;1.98;;
10596;SDS011;5346;48.766;8.674;2023-09-18T01:40:30;10.38;;;2.65;;
10596;SDS011;5346;48.766;8.674;2023-09-18T01:43:07;9.32;;;2.47;;
10596;SDS011;5346;48.766;8.674;2023-09-18T01:45:42;7.53;;;2.60;;
10596;SDS011;5346;48.766;8.674;2023-09-18T01:48:18;8.30;;;2.60;;
10596;SDS011;5346;48.766;8.674;2023-09-18T01:50:52;8.30;;;3.05;;
10596;SDS011;5346;48.766;8.674;2023-09-18T01:53:26;11.02;;;2.47;;
10596;SDS011;5346;48.766;8.674;2023-09-18T01:56:00;11.82;;;3.00;;
10596;SDS011;5346;48.766;8.674;2023-09-18T01:58:29;11.50;;;2.70;;
10596;SDS011;5346;48.766;8.674;2023-09-18T02:01:00;7.72;;;2.90;;
10596;SDS011;5346;48.766;8.674;2023-09-18T02:03:35;9.68;;;2.70;;
10596;SDS011;5346;48.766;8.674;2023-09-18T02:06:23;10.68;;;3.25;;
10596;SDS011;5346;48.766;8.674;2023-09-18T02:08:57;9.48;;;2.80;;
10596;SDS011;5346;48.766;8.674;2023-09-18T02:11:26;9.27;;;3.08;;
10596;SDS011;5346;48.766;8.674;2023-09-18T02:14:01;9.38;;;2.78;;
10596;SDS011;5346;48.766;8.674;2023-09-18T02:16:38;6.93;;;3.08;;
10596;SDS011;5346;48.766;8.674;2023-09-18T02:19:19;10.50;;;2.90;;
10596;SDS011;5346;48.766;8.674;2023-09-18T02:21:47;10.38;;;2.97;;
10596;SDS011;5346;48.766;8.674;2023-09-18T02:24:22;9.52;;;3.05;;
10596;SDS011;5346;48.766;8.674;2023-09-18T02:26:50;6.05;;;2.47;;
10596;SDS011;5346;48.766;8.674;2023-09-18T02:29:24;8.80;;;2.35;;
10596;SDS011;5346;48.766;8.674;2023-09-18T02:31:52;8.27;;;2.58;;
10596;SDS011;5346;48.766;8.674;2023-09-18T02:34:27;7.93;;;2.55;;
10596;SDS011;5346;48.766;8.674;2023-09-18T02:37:07;14.07;;;2.92;;
10596;SDS011;5346;48.766;8.674;2023-09-18T02:39:41;6.78;;;2.50;;
10596;SDS011;5346;48.766;8.674;2023-09-18T02:42:16;5.95;;;2.97;;
10596;SDS011;5346;48.766;8.674;2023-09-18T02:44:44;6.50;;;2.33;;
10596;SDS011;5346;48.766;8.674;2023-09-18T02:47:18;11.25;;;2.70;;
10596;SDS011;5346;48.766;8.674;2023-09-18T02:49:46;13.13;;;2.63;;
10596;SDS011;5346;48.766;8.674;2023-09-18T02:52:19;6.55;;;2.22;;
10596;SDS011;5346;48.766;8.674;2023-09-18T02:54:50;13.65;;;2.95;;
10596;SDS011;5346;48.766;8.674;2023-09-18T02:57:19;5.10;;;2.50;;
10596;SDS011;5346;48.766;8.674;2023-09-18T02:59:53;9.20;;;2.42;;
10596;SDS011;5346;48.766;8.674;2023-09-18T03:02:21;11.48;;;2.90;;
10596;SDS011;5346;48.766;8.674;2023-09-18T03:04:56;7.38;;;2.75;;
10596;SDS011;5346;48.766;8.674;2023-09-18T03:07:23;8.20;;;2.30;;
10596;SDS011;5346;48.766;8.674;2023-09-18T03:09:58;7.95;;;2.60;;
10596;SDS011;5346;48.766;8.674;2023-09-18T03:12:25;12.45;;;2.50;;
10596;SDS011;5346;48.766;8.674;2023-09-18T03:15:00;10.13;;;3.33;;
10596;SDS011;5346;48.766;8.674;2023-09-18T03:17:28;11.38;;;2.60;;
10596;SDS011;5346;48.766;8.674;2023-09-18T03:20:03;10.25;;;2.95;;
10596;SDS011;5346;48.766;8.674;2023-09-18T03:22:39;12.65;;;3.20;;
10596;SDS011;5346;48.766;8.674;2023-09-18T03:25:06;21.63;;;3.40;;
10596;SDS011;5346;48.766;8.674;2023-09-18T03:27:34;13.18;;;3.17;;
10596;SDS011;5346;48.766;8.674;2023-09-18T03:30:09;14.77;;;2.63;;
10596;SDS011;5346;48.766;8.674;2023-09-18T03:32:39;5.93;;;2.75;;
10596;SDS011;5346;48.766;8.674;2023-09-18T03:35:14;12.88;;;3.63;;
10596;SDS011;5346;48.766;8.674;2023-09-18T03:37:55;11.13;;;3.45;;
10596;SDS011;5346;48.766;8.674;2023-09-18T03:40:31;14.88;;;3.55;;
10596;SDS011;5346;48.766;8.674;2023-09-18T03:42:59;16.88;;;3.70;;
10596;SDS011;5346;48.766;8.674;2023-09-18T03:45:35;17.58;;;3.97;;
10596;SDS011;5346;48.766;8.674;2023-09-18T03:48:09;11.88;;;3.40;;
10596;SDS011;5346;48.766;8.674;2023-09-18T03:50:47;20.15;;;3.20;;
10596;SDS011;5346;48.766;8.674;2023-09-18T03:53:20;10.63;;;3.08;;
10596;SDS011;5346;48.766;8.674;2023-09-18T03:55:48;8.50;;;3.15;;
10596;SDS011;5346;48.766;8.674;2023-09-18T03:58:22;14.38;;;2.65;;
10596;SDS011;5346;48.766;8.674;2023-09-18T04:00:50;6.85;;;3.03;;
10596;SDS011;5346;48.766;8.674;2023-09-18T04:03:25;8.00;;;2.60;;
10596;SDS011;5346;48.766;8.674;2023-09-18T04:05:53;9.98;;;2.25;;
10596;SDS011;5346;48.766;8.674;2023-09-18T04:08:28;8.25;;;2.78;;
10596;SDS011;5346;48.766;8.674;2023-09-18T04:10:56;6.78;;;1.95;;
10596;SDS011;5346;48.766;8.674;2023-09-18T04:13:32;6.93;;;3.00;;
10596;SDS011;5346;48.766;8.674;2023-09-18T04:16:06;9.27;;;2.70;;
10596;SDS011;5346;48.766;8.674;2023-09-18T04:18:34;5.95;;;2.50;;
10596;SDS011;5346;48.766;8.674;2023-09-18T04:21:08;8.45;;;2.47;;
10596;SDS011;5346;48.766;8.674;2023-09-18T04:23:44;10.63;;;3.08;;
10596;SDS011;5346;48.766;8.674;2023-09-18T04:26:18;9.23;;;3.10;;
10596;SDS011;5346;48.766;8.674;2023-09-18T04:28:50;8.45;;;2.65;;
10596;SDS011;5346;48.766;8.674;2023-09-18T04:31:25;11.63;;;2.70;;
10596;SDS011;5346;48.766;8.674;2023-09-18T04:34:00;6.68;;;2.50;;
10596;SDS011;5346;48.766;8.674;2023-09-18T04:36:34;9.13;;;2.80;;
10596;SDS011;5346;48.766;8.674;2023-09-18T04:39:23;4.28;;;2.28;;
10596;SDS011;5346;48.766;8.674;2023-09-18T04:41:57;7.03;;;2.45;;
10596;SDS011;5346;48.766;8.674;2023-09-18T04:44:25;6.28;;;2.70;;
10596;SDS011;5346;48.766;8.674;2023-09-18T04:47:02;7.30;;;2.55;;
10596;SDS011;5346;48.766;8.674;2023-09-18T04:49:36;7.13;;;2.80;;
10596;SDS011;5346;48.766;8.674;2023-09-18T04:52:04;5.50;;;2.13;;
10596;SDS011;5346;48.766;8.674;2023-09-18T04:54:32;11.07;;;3.17;;
10596;SDS011;5346;48.766;8.674;2023-09-18T04:57:07;6.63;;;2.55;;
10596;SDS011;5346;48.766;8.674;2023-09-18T04:59:44;7.72;;;2.90;;
10596;SDS011;5346;48.766;8.674;2023-09-18T05:02:12;8.15;;;2.67;;
10596;SDS011;5346;48.766;8.674;2023-09-18T05:04:46;8.55;;;3.05;;
10596;SDS011;5346;48.766;8.674;2023-09-18T05:07:14;11.23;;;3.00;;
10596;SDS011;5346;48.766;8.674;2023-09-18T05:09:47;6.25;;;2.50;;
10596;SDS011;5346;48.766;8.674;2023-09-18T05:12:15;8.77;;;2.97;;
10596;SDS011;5346;48.766;8.674;2023-09-18T05:14:43;10.52;;;2.25;;
10596;SDS011;5346;48.766;8.674;2023-09-18T05:17:17;5.70;;;2.60;;
10596;SDS011;5346;48.766;8.674;2023-09-18T05:19:45;7.95;;;2.70;;
10596;SDS011;5346;48.766;8.674;2023-09-18T05:22:28;10.85;;;2.65;;
10596;SDS011;5346;48.766;8.674;2023-09-18T05:24:56;7.60;;;2.75;;
10596;SDS011;5346;48.766;8.674;2023-09-18T05:27:40;7.93;;;2.63;;
10596;SDS011;5346;48.766;8.674;2023-09-18T05:30:31;6.40;;;2.80;;
10596;SDS011;5346;48.766;8.674;2023-09-18T05:33:12;6.20;;;2.67;;
10596;SDS011;5346;48.766;8.674;2023-09-18T05:35:42;5.55;;;2.42;;
10596;SDS011;5346;48.766;8.674;2023-09-18T05:38:17;7.85;;;2.78;;
10596;SDS011;5346;48.766;8.674;2023-09-18T05:40:45;12.30;;;2.63;;
10596;SDS011;5346;48.766;8.674;2023-09-18T05:43:20;9.07;;;2.38;;
10596;SDS011;5346;48.766;8.674;2023-09-18T05:45:56;8.35;;;2.65;;
10596;SDS011;5346;48.766;8.674;2023-09-18T05:48:31;5.38;;;2.45;;
10596;SDS011;5346;48.766;8.674;2023-09-18T05:50:59;9.55;;;3.00;;
10596;SDS011;5346;48.766;8.674;2023-09-18T05:53:34;7.43;;;2.42;;
10596;SDS011;5346;48.766;8.674;2023-09-18T05:56:02;10.57;;;2.30;;
10596;SDS011;5346;48.766;8.674;2023-09-18T05:58:37;7.13;;;2.22;;
10596;SDS011;5346;48.766;8.674;2023-09-18T06:01:06;4.93;;;1.65;;
10596;SDS011;5346;48.766;8.674;2023-09-18T06:03:34;4.28;;;1.75;;
10596;SDS011;5346;48.766;8.674;2023-09-18T06:06:09;5.28;;;2.05;;
10596;SDS011;5346;48.766;8.674;2023-09-18T06:08:46;7.93;;;2.20;;
10596;SDS011;5346;48.766;8.674;2023-09-18T06:11:23;9.23;;;1.95;;
10596;SDS011;5346;48.766;8.674;2023-09-18T06:13:51;6.80;;;1.83;;
10596;SDS011;5346;48.766;8.674;2023-09-18T06:16:26;8.80;;;1.67;;
10596;SDS011;5346;48.766;8.674;2023-09-18T06:19:01;3.90;;;1.40;;
10596;SDS011;5346;48.766;8.674;2023-09-18T06:21:36;7.13;;;1.70;;
10596;SDS011;5346;48.766;8.674;2023-09-18T06:24:10;5.78;;;1.60;;
10596;SDS011;5346;48.766;8.674;2023-09-18T06:26:49;11.68;;;1.88;;
10596;SDS011;5346;48.766;8.674;2023-09-18T06:29:18;2.70;;;1.30;;
10596;SDS011;5346;48.766;8.674;2023-09-18T06:31:53;4.35;;;1.27;;
10596;SDS011;5346;48.766;8.674;2023-09-18T06:34:22;3.85;;;1.50;;
10596;SDS011;5346;48.766;8.674;2023-09-18T06:37:03;3.40;;;1.40;;
10596;SDS011;5346;48.766;8.674;2023-09-18T06:39:40;4.13;;;1.60;;
10596;SDS011;5346;48.766;8.674;2023-09-18T06:42:21;5.15;;;1.20;;
10596;SDS011;5346;48.766;8.674;2023-09-18T06:44:55;2.25;;;1.33;;
10596;SDS011;5346;48.766;8.674;2023-09-18T06:47:30;5.82;;;1.80;;
10596;SDS011;5346;48.766;8.674;2023-09-18T06:49:59;2.42;;;1.13;;
10596;SDS011;5346;48.766;8.674;2023-09-18T06:52:34;5.18;;;1.40;;
10596;SDS011;5346;48.766;8.674;2023-09-18T06:55:02;4.38;;;1.25;;
10596;SDS011;5346;48.766;8.674;2023-09-18T06:57:38;8.48;;;1.20;;
10596;SDS011;5346;48.766;8.674;2023-09-18T07:00:08;3.30;;;1.20;;
10596;SDS011;5346;48.766;8.674;2023-09-18T07:02:43;3.13;;;1.20;;
10596;SDS011;5346;48.766;8.674;2023-09-18T07:05:24;2.22;;;1.20;;
10596;SDS011;5346;48.766;8.674;2023-09-18T07:07:59;3.60;;;1.17;;
10596;SDS011;5346;48.766;8.674;2023-09-18T07:10:34;3.70;;;1.20;;
10596;SDS011;5346;48.766;8.674;2023-09-18T07:13:09;1.20;;;1.10;;
10596;SDS011;5346;48.766;8.674;2023-09-18T07:15:38;1.63;;;1.13;;
10596;SDS011;5346;48.766;8.674;2023-09-18T07:18:14;2.42;;;0.95;;
10596;SDS011;5346;48.766;8.674;2023-09-18T07:20:45;2.13;;;1.02;;
10596;SDS011;5346;48.766;8.674;2023-09-18T07:23:20;1.52;;;0.80;;
10596;SDS011;5346;48.766;8.674;2023-09-18T07:25:54;4.18;;;1.10;;
10596;SDS011;5346;48.766;8.674;2023-09-18T07:28:22;1.98;;;1.10;;
10596;SDS011;5346;48.766;8.674;2023-09-18T07:30:57;2.47;;;1.13;;
10596;SDS011;5346;48.766;8.674;2023-09-18T07:33:34;1.10;;;0.80;;
10596;SDS011;5346;48.766;8.674;2023-09-18T07:36:09;1.15;;;1.02;;
10596;SDS011;5346;48.766;8.674;2023-09-18T07:38:49;1.83;;;1.02;;
10596;SDS011;5346;48.766;8.674;2023-09-18T07:41:25;1.63;;;1.02;;
10596;SDS011;5346;48.766;8.674;2023-09-18T07:43:59;2.53;;;0.90;;
10596;SDS011;5346;48.766;8.674;2023-09-18T07:46:36;1.25;;;0.75;;
10596;SDS011;5346;48.766;8.674;2023-09-18T07:49:04;5.95;;;1.17;;
10596;SDS011;5346;48.766;8.674;2023-09-18T07:51:39;2.05;;;1.05;;
10596;SDS011;5346;48.766;8.674;2023-09-18T07:54:07;1.73;;;0.70;;
10596;SDS011;5346;48.766;8.674;2023-09-18T07:56:42;1.73;;;0.90;;
10596;SDS011;5346;48.766;8.674;2023-09-18T07:59:17;2.53;;;0.88;;
10596;SDS011;5346;48.766;8.674;2023-09-18T08:01:51;1.08;;;0.75;;
10596;SDS011;5346;48.766;8.674;2023-09-18T08:04:20;1.42;;;1.02;;
10596;SDS011;5346;48.766;8.674;2023-09-18T08:06:55;0.77;;;0.77;;
10596;SDS011;5346;48.766;8.674;2023-09-18T08:09:30;1.80;;;0.88;;
10596;SDS011;5346;48.766;8.674;2023-09-18T08:12:06;2.40;;;0.80;;
10596;SDS011;5346;48.766;8.674;2023-09-18T08:14:35;1.92;;;0.80;;
10596;SDS011;5346;48.766;8.674;2023-09-18T08:17:11;1.55;;;0.90;;
10596;SDS011;5346;48.766;8.674;2023-09-18T08:19:50;7.25;;;1.10;;
10596;SDS011;5346;48.766;8.674;2023-09-18T08:22:22;2.92;;;1.10;;
10596;SDS011;5346;48.766;8.674;2023-09-18T08:24:57;3.13;;;1.10;;
10596;SDS011;5346;48.766;8.674;2023-09-18T08:27:32;3.40;;;1.20;;
10596;SDS011;5346;48.766;8.674;2023-09-18T08:30:00;3.22;;;1.30;;
10596;SDS011;5346;48.766;8.674;2023-09-18T08:32:28;3.05;;;1.30;;
10596;SDS011;5346;48.766;8.674;2023-09-18T08:35:03;2.22;;;1.23;;
10596;SDS011;5346;48.766;8.674;2023-09-18T08:37:40;2.67;;;1.30;;
10596;SDS011;5346;48.766;8.674;2023-09-18T08:40:22;2.85;;;1.38;;
10596;SDS011;5346;48.766;8.674;2023-09-18T08:42:58;3.45;;;1.80;;
10596;SDS011;5346;48.766;8.674;2023-09-18T08:45:35;4.45;;;1.30;;
10596;SDS011;5346;48.766;8.674;2023-09-18T08:48:26;2.92;;;1.10;;
10596;SDS011;5346;48.766;8.674;2023-09-18T08:51:11;1.95;;;1.40;;
10596;SDS011;5346;48.766;8.674;2023-09-18T08:53:48;4.93;;;1.95;;
10596;SDS011;5346;48.766;8.674;2023-09-18T08:56:24;3.30;;;1.23;;
10596;SDS011;5346;48.766;8.674;2023-09-18T08:59:01;5.90;;;1.40;;
10596;SDS011;5346;48.766;8.674;2023-09-18T09:01:30;5.05;;;1.30;;
10596;SDS011;5346;48.766;8.674;2023-09-18T09:04:05;1.92;;;1.45;;
10596;SDS011;5346;48.766;8.674;2023-09-18T09:06:34;5.78;;;1.45;;
10596;SDS011;5346;48.766;8.674;2023-09-18T09:09:10;3.35;;;1.40;;
10596;SDS011;5346;48.766;8.674;2023-09-18T09:11:49;2.75;;;1.70;;
10596;SDS011;5346;48.766;8.674;2023-09-18T09:14:24;4.47;;;1.70;;
10596;SDS011;5346;48.766;8.674;2023-09-18T09:16:56;5.00;;;1.60;;
10596;SDS011;5346;48.766;8.674;2023-09-18T09:19:32;2.60;;;1.35;;
10596;SDS011;5346;48.766;8.674;2023-09-18T09:22:05;3.35;;;1.52;;
10596;SDS011;5346;48.766;8.674;2023-09-18T09:24:42;5.43;;;1.67;;
10596;SDS011;5346;48.766;8.674;2023-09-18T09:27:17;3.85;;;1.58;;
10596;SDS011;5346;48.766;8.674;2023-09-18T09:29:57;6.28;;;1.75;;
10596;SDS011;5346;48.766;8.674;2023-09-18T09:32:32;5.70;;;1.85;;
10596;SDS011;5346;48.766;8.674;2023-09-18T09:35:00;4.03;;;1.90;;
10596;SDS011;5346;48.766;8.674;2023-09-18T09:37:48;3.28;;;1.60;;
10596;SDS011;5346;48.766;8.674;2023-09-18T09:40:23;2.97;;;1.65;;
10596;SDS011;5346;48.766;8.674;2023-09-18T09:42:59;2.55;;;1.50;;
10596;SDS011;5346;48.766;8.674;2023-09-18T09:45:28;3.58;;;1.65;;
10596;SDS011;5346;48.766;8.674;2023-09-18T09:47:57;5.30;;;1.40;;
10596;SDS011;5346;48.766;8.674;2023-09-18T09:50:34;3.10;;;1.25;;
10596;SDS011;5346;48.766;8.674;2023-09-18T09:53:16;2.72;;;1.40;;
10596;SDS011;5346;48.766;8.674;2023-09-18T09:55:55;1.48;;;1.10;;
10596;SDS011;5346;48.766;8.674;2023-09-18T09:58:26;1.60;;;1.38;;
10596;SDS011;5346;48.766;8.674;2023-09-18T10:01:04;2.85;;;1.20;;
10596;SDS011;5346;48.766;8.674;2023-09-18T10:03:44;1.92;;;1.13;;
10596;SDS011;5346;48.766;8.674;2023-09-18T10:06:13;2.30;;;1.30;;
10596;SDS011;5346;48.766;8.674;2023-09-18T10:08:48;4.22;;;1.15;;
10596;SDS011;5346;48.766;8.674;2023-09-18T10:11:23;3.47;;;1.10;;
10596;SDS011;5346;48.766;8.674;2023-09-18T10:13:59;2.05;;;1.00;;
10596;SDS011;5346;48.766;8.674;2023-09-18T10:16:41;4.63;;;1.42;;
10596;SDS011;5346;48.766;8.674;2023-09-18T10:19:28;2.53;;;1.10;;
10596;SDS011;5346;48.766;8.674;2023-09-18T10:25:17;2.45;;;1.08;;
10596;SDS011;5346;48.766;8.674;2023-09-18T10:27:51;1.88;;;1.15;;
10596;SDS011;5346;48.766;8.674;2023-09-18T10:30:27;3.00;;;1.10;;
10596;SDS011;5346;48.766;8.674;2023-09-18T10:33:03;1.38;;;1.00;;
10596;SDS011;5346;48.766;8.674;2023-09-18T10:35:41;1.60;;;1.13;;
10596;SDS011;5346;48.766;8.674;2023-09-18T10:38:16;3.67;;;1.13;;
10596;SDS011;5346;48.766;8.674;2023-09-18T10:40:58;2.22;;;1.30;;
10596;SDS011;5346;48.766;8.674;2023-09-18T10:43:34;1.30;;;1.10;;
10596;SDS011;5346;48.766;8.674;2023-09-18T10:46:02;1.35;;;1.02;;
10596;SDS011;5346;48.766;8.674;2023-09-18T10:48:37;1.17;;;0.80;;
10596;SDS011;5346;48.766;8.674;2023-09-18T10:51:10;2.63;;;1.35;;
10596;SDS011;5346;48.766;8.674;2023-09-18T10:53:47;3.83;;;1.10;;
10596;SDS011;5346;48.766;8.674;2023-09-18T10:56:16;2.72;;;1.35;;
10596;SDS011;5346;48.766;8.674;2023-09-18T10:58:59;2.20;;;1.30;;
10596;SDS011;5346;48.766;8.674;2023-09-18T11:01:29;4.82;;;1.23;;
10596;SDS011;5346;48.766;8.674;2023-09-18T11:04:05;4.53;;;1.27;;
10596;SDS011;5346;48.766;8.674;2023-09-18T11:09:28;2.70;;;1.00;;
10596;SDS011;5346;48.766;8.674;2023-09-18T11:20:16;2.83;;;1.40;;
10596;SDS011;5346;48.766;8.674;2023-09-18T11:25:55;2.67;;;1.35;;
10596;SDS011;5346;48.766;8.674;2023-09-18T11:28:24;2.05;;;1.20;;
10596;SDS011;5346;48.766;8.674;2023-09-18T11:30:54;4.03;;;1.20;;
10596;SDS011;5346;48.766;8.674;2023-09-18T11:33:37;4.22;;;1.17;;
10596;SDS011;5346;48.766;8.674;2023-09-18T11:39:02;2.15;;;1.13;;
10596;SDS011;5346;48.766;8.674;2023-09-18T11:41:38;2.58;;;1.10;;
10596;SDS011;5346;48.766;8.674;2023-09-18T11:46:47;3.80;;;1.13;;
10596;SDS011;5346;48.766;8.674;2023-09-18T11:49:25;6.53;;;1.20;;
10596;SDS011;5346;48.766;8.674;2023-09-18T11:52:01;2.35;;;1.20;;
10596;SDS011;5346;48.766;8.674;2023-09-18T11:54:39;1.67;;;1.30;;
10596;SDS011;5346;48.766;8.674;2023-09-18T11:57:07;1.92;;;1.20;;
10596;SDS011;5346;48.766;8.674;2023-09-18T11:59:45;2.15;;;1.20;;
10596;SDS011;5346;48.766;8.674;2023-09-18T12:02:25;1.40;;;1.30;;
10596;SDS011;5346;48.766;8.674;2023-09-18T12:05:13;4.35;;;1.38;;
10596;SDS011;5346;48.766;8.674;2023-09-18T12:07:48;5.18;;;1.50;;
10596;SDS011;5346;48.766;8.674;2023-09-18T12:10:25;3.20;;;1.30;;
10596;SDS011;5346;48.766;8.674;2023-09-18T12:12:54;4.72;;;1.30;;
10596;SDS011;5346;48.766;8.674;2023-09-18T12:15:30;2.90;;;1.30;;
10596;SDS011;5346;48.766;8.674;2023-09-18T12:18:09;3.58;;;1.20;;
10596;SDS011;5346;48.766;8.674;2023-09-18T12:20:45;3.00;;;1.48;;
10596;SDS011;5346;48.766;8.674;2023-09-18T12:23:20;2.30;;;1.20;;
10596;SDS011;5346;48.766;8.674;2023-09-18T12:25:59;1.90;;;1.30;;
10596;SDS011;5346;48.766;8.674;2023-09-18T12:28:28;3.05;;;1.17;;
10596;SDS011;5346;48.766;8.674;2023-09-18T12:31:05;3.60;;;1.30;;
10596;SDS011;5346;48.766;8.674;2023-09-18T12:33:43;1.52;;;1.23;;
10596;SDS011;5346;48.766;8.674;2023-09-18T12:36:22;2.38;;;1.27;;
10596;SDS011;5346;48.766;8.674;2023-09-18T12:38:59;4.75;;;1.30;;
10596;SDS011;5346;48.766;8.674;2023-09-18T12:41:37;2.53;;;1.20;;
10596;SDS011;5346;48.766;8.674;2023-09-18T12:44:05;3.30;;;1.42;;
10596;SDS011;5346;48.766;8.674;2023-09-18T12:46:42;1.15;;;1.05;;
10596;SDS011;5346;48.766;8.674;2023-09-18T12:51:55;1.75;;;1.23;;
10596;SDS011;5346;48.766;8.674;2023-09-18T12:54:40;3.40;;;1.30;;
10596;SDS011;5346;48.766;8.674;2023-09-18T12:57:19;1.55;;;1.17;;
10596;SDS011;5346;48.766;8.674;2023-09-18T12:59:54;3.58;;;1.35;;
10596;SDS011;5346;48.766;8.674;2023-09-18T13:02:29;3.22;;;1.40;;
10596;SDS011;5346;48.766;8.674;2023-09-18T13:05:04;1.85;;;1.40;;
10596;SDS011;5346;48.766;8.674;2023-09-18T13:07:45;2.22;;;1.20;;
10596;SDS011;5346;48.766;8.674;2023-09-18T13:10:24;2.85;;;1.50;;
10596;SDS011;5346;48.766;8.674;2023-09-18T13:13:00;2.33;;;1.25;;
10596;SDS011;5346;48.766;8.674;2023-09-18T13:15:31;4.05;;;1.77;;
10596;SDS011;5346;48.766;8.674;2023-09-18T13:18:09;5.07;;;1.35;;
10596;SDS011;5346;48.766;8.674;2023-09-18T13:20:38;2.47;;;1.30;;
10596;SDS011;5346;48.766;8.674;2023-09-18T13:23:16;3.55;;;1.10;;
10596;SDS011;5346;48.766;8.674;2023-09-18T13:25:51;1.50;;;1.00;;
10596;SDS011;5346;48.766;8.674;2023-09-18T13:28:34;3.50;;;1.50;;
10596;SDS011;5346;48.766;8.674;2023-09-18T13:31:09;1.67;;;1.10;;
10596;SDS011;5346;48.766;8.674;2023-09-18T13:33:44;2.97;;;0.95;;
10596;SDS011;5346;48.766;8.674;2023-09-18T13:36:18;5.57;;;1.30;;
10596;SDS011;5346;48.766;8.674;2023-09-18T13:38:58;1.67;;;1.25;;
10596;SDS011;5346;48.766;8.674;2023-09-18T13:41:33;4.05;;;1.58;;
10596;SDS011;5346;48.766;8.674;2023-09-18T13:44:08;2.25;;;1.27;;
10596;SDS011;5346;48.766;8.674;2023-09-18T13:46:37;3.25;;;1.27;;
10596;SDS011;5346;48.766;8.674;2023-09-18T13:49:11;3.25;;;1.30;;
10596;SDS011;5346;48.766;8.674;2023-09-18T13:51:46;2.00;;;1.27;;
10596;SDS011;5346;48.766;8.674;2023-09-18T13:54:14;2.97;;;1.50;;
10596;SDS011;5346;48.766;8.674;2023-09-18T13:56:42;2.95;;;1.40;;
10596;SDS011;5346;48.766;8.674;2023-09-18T13:59:16;1.52;;;1.15;;
10596;SDS011;5346;48.766;8.674;2023-09-18T14:01:44;2.25;;;1.30;;
10596;SDS011;5346;48.766;8.674;2023-09-18T14:04:18;2.55;;;1.40;;
10596;SDS011;5346;48.766;8.674;2023-09-18T14:06:55;2.03;;;1.30;;
10596;SDS011;5346;48.766;8.674;2023-09-18T14:09:23;3.03;;;1.40;;
10596;SDS011;5346;48.766;8.674;2023-09-18T14:11:58;2.95;;;1.40;;
10596;SDS011;5346;48.766;8.674;2023-09-18T14:14:29;1.42;;;1.20;;
10596;SDS011;5346;48.766;8.674;2023-09-18T14:17:05;2.58;;;1.38;;
10596;SDS011;5346;48.766;8.674;2023-09-18T14:19:34;4.82;;;1.63;;
10596;SDS011;5346;48.766;8.674;2023-09-18T14:22:11;1.80;;;1.40;;
10596;SDS011;5346;48.766;8.674;2023-09-18T14:24:47;1.90;;;1.33;;
10596;SDS011;5346;48.766;8.674;2023-09-18T14:27:25;2.55;;;1.20;;
10596;SDS011;5346;48.766;8.674;2023-09-18T14:29:59;3.40;;;1.25;;
10596;SDS011;5346;48.766;8.674;2023-09-18T14:32:30;2.65;;;1.27;;
10596;SDS011;5346;48.766;8.674;2023-09-18T14:35:06;1.65;;;1.05;;
10596;SDS011;5346;48.766;8.674;2023-09-18T14:37:36;1.75;;;1.05;;
10596;SDS011;5346;48.766;8.674;2023-09-18T14:40:23;1.30;;;1.20;;
10596;SDS011;5346;48.766;8.674;2023-09-18T14:42:52;2.50;;;1.15;;
10596;SDS011;5346;48.766;8.674;2023-09-18T14:45:27;1.85;;;1.10;;
10596;SDS011;5346;48.766;8.674;2023-09-18T14:47:55;2.28;;;1.35;;
10596;SDS011;5346;48.766;8.674;2023-09-18T14:50:23;3.33;;;1.38;;
10596;SDS011;5346;48.766;8.674;2023-09-18T14:52:58;2.20;;;1.10;;
10596;SDS011;5346;48.766;8.674;2023-09-18T14:55:26;1.70;;;1.42;;
10596;SDS011;5346;48.766;8.674;2023-09-18T14:58:01;2.13;;;1.42;;
10596;SDS011;5346;48.766;8.674;2023-09-18T15:00:36;2.28;;;1.30;;
10596;SDS011;5346;48.766;8.674;2023-09-18T15:03:10;2.10;;;1.50;;
10596;SDS011;5346;48.766;8.674;2023-09-18T15:05:38;2.40;;;1.15;;
10596;SDS011;5346;48.766;8.674;2023-09-18T15:08:14;2.22;;;1.42;;
10596;SDS011;5346;48.766;8.674;2023-09-18T15:10:53;5.72;;;1.35;;
10596;SDS011;5346;48.766;8.674;2023-09-18T15:13:32;2.72;;;1.33;;
10596;SDS011;5346;48.766;8.674;2023-09-18T15:16:02;1.20;;;1.08;;
10596;SDS011;5346;48.766;8.674;2023-09-18T15:18:37;1.70;;;1.25;;
10596;SDS011;5346;48.766;8.674;2023-09-18T15:21:23;2.38;;;1.10;;
10596;SDS011;5346;48.766;8.674;2023-09-18T15:23:51;1.83;;;1.00;;
10596;SDS011;5346;48.766;8.674;2023-09-18T15:26:27;1.98;;;1.20;;
10596;SDS011;5346;48.766;8.674;2023-09-18T15:28:56;1.85;;;1.48;;
10596;SDS011;5346;48.766;8.674;2023-09-18T15:31:30;1.80;;;1.23;;
10596;SDS011;5346;48.766;8.674;2023-09-18T15:33:58;2.75;;;1.10;;
10596;SDS011;5346;48.766;8.674;2023-09-18T15:36:34;2.78;;;1.30;;
10596;SDS011;5346;48.766;8.674;2023-09-18T15:39:14;1.65;;;1.13;;
10596;SDS011;5346;48.766;8.674;2023-09-18T15:41:49;2.70;;;1.33;;
10596;SDS011;5346;48.766;8.674;2023-09-18T15:44:24;3.45;;;1.30;;
10596;SDS011;5346;48.766;8.674;2023-09-18T15:46:59;2.75;;;1.50;;
10596;SDS011;5346;48.766;8.674;2023-09-18T15:49:27;2.40;;;1.23;;
10596;SDS011;5346;48.766;8.674;2023-09-18T15:52:01;3.97;;;1.23;;
10596;SDS011;5346;48.766;8.674;2023-09-18T15:54:29;2.47;;;1.20;;
10596;SDS011;5346;48.766;8.674;2023-09-18T15:57:04;3.83;;;1.38;;
10596;SDS011;5346;48.766;8.674;2023-09-18T15:59:39;2.88;;;1.38;;
10596;SDS011;5346;48.766;8.674;2023-09-18T16:02:08;2.67;;;1.45;;
10596;SDS011;5346;48.766;8.674;2023-09-18T16:04:49;1.05;;;0.95;;
10596;SDS011;5346;48.766;8.674;2023-09-18T16:07:19;3.10;;;1.35;;
10596;SDS011;5346;48.766;8.674;2023-09-18T16:09:47;3.13;;;1.30;;